Time;durP1;ratioP1;P1;durP2;ratioP2;P2;SDS_P1;SDS_P2;PMS_P1;PMS_P2;Temp;Humidity;BMP_temperature;BMP_pressure;BME280_temperature;BME280_humidity;BME280_pressure;Samples;Min_cycle;Max_cycle;Signal;HPM_P1;HPM_P2
2023/10/01 00:00:15;;;;;;;6.00;1.85;;;;;;;13.81;74.91;100645.63;5107501;28;20024;-62
2023/10/01 00:02:41;;;;;;;3.15;1.85;;;;;;;13.78;74.50;100641.31;5107764;28;20019;-60
2023/10/01 00:05:08;;;;;;;4.28;0.73;;;;;;;13.77;74.78;100652.63;5088164;28;20031;-62
2023/10/01 00:07:37;;;;;;;7.97;1.25;;;;;;;13.80;74.54;100649.97;5107423;28;20032;-63
2023/10/01 00:10:12;;;;;;;1.95;0.95;;;;;;;13.79;75.00;100644.78;5107162;28;20480;-62
2023/10/01 00:12:47;;;;;;;4.85;0.85;;;;;;;13.79;74.67;100650.00;5107152;28;20027;-62
2023/10/01 00:15:16;;;;;;;4.32;0.95;;;;;;;13.80;74.58;100646.50;5107290;28;20020;-62
2023/10/01 00:17:44;;;;;;;1.30;0.90;;;;;;;13.75;75.16;100655.25;5106851;28;20084;-63
2023/10/01 00:20:23;;;;;;;2.55;0.95;;;;;;;13.75;74.71;100649.22;5106975;28;20024;-60
2023/10/01 00:22:56;;;;;;;2.83;0.68;;;;;;;13.74;74.96;100648.34;5106738;28;20028;-60
2023/10/01 00:25:23;;;;;;;3.67;1.00;;;;;;;13.77;74.54;100655.22;5106919;28;20380;-60
2023/10/01 00:27:49;;;;;;;1.63;0.88;;;;;;;13.71;74.80;100653.59;5106795;28;20079;-60
2023/10/01 00:30:15;;;;;;;6.95;1.85;;;;;;;13.72;74.72;100657.09;5107146;28;20016;-60
2023/10/01 00:32:41;;;;;;;0.88;0.60;;;;;;;13.69;74.62;100660.59;5106761;28;20016;-61
2023/10/01 00:35:07;;;;;;;0.30;0.30;;;;;;;13.69;75.06;100665.81;5106680;28;20024;-61
2023/10/01 00:37:34;;;;;;;7.10;0.82;;;;;;;13.63;74.54;100645.06;5106592;28;20027;-62
2023/10/01 00:40:00;;;;;;;2.28;1.20;;;;;;;13.68;74.79;100655.41;5106661;28;20047;-61
2023/10/01 00:42:29;;;;;;;0.95;0.60;;;;;;;13.64;74.93;100654.63;5106197;28;20035;-60
2023/10/01 00:44:55;;;;;;;0.38;0.25;;;;;;;13.65;74.73;100650.25;5106618;28;20383;-60
2023/10/01 00:47:24;;;;;;;3.92;0.93;;;;;;;13.65;75.10;100647.63;5106435;28;20046;-61
2023/10/01 00:49:50;;;;;;;1.30;0.85;;;;;;;13.62;74.84;100648.56;5106295;28;20020;-61
2023/10/01 00:52:20;;;;;;;1.33;0.52;;;;;;;13.63;75.05;100645.06;5088227;28;20172;-60
2023/10/01 00:54:48;;;;;;;1.38;0.80;;;;;;;13.62;74.72;100638.13;5106245;28;20444;-61
2023/10/01 00:57:16;;;;;;;0.30;0.30;;;;;;;13.65;75.17;100645.03;5106158;28;20048;-60
2023/10/01 00:59:43;;;;;;;1.80;0.82;;;;;;;13.63;74.88;100642.44;5106146;28;20024;-61
2023/10/01 01:02:09;;;;;;;0.60;0.47;;;;;;;13.61;74.67;100647.69;5106201;28;20095;-61
2023/10/01 01:04:44;;;;;;;1.48;0.50;;;;;;;13.59;74.85;100641.66;5105845;28;20218;-62
2023/10/01 01:07:19;;;;;;;0.82;0.73;;;;;;;13.59;74.56;100648.59;5106305;28;20024;-61
2023/10/01 01:09:45;;;;;;;3.20;1.55;;;;;;;13.58;74.58;100647.75;5105921;28;20065;-61
2023/10/01 01:12:12;;;;;;;1.95;0.75;;;;;;;13.55;74.84;100646.91;5106042;28;20031;-61
2023/10/01 01:14:38;;;;;;;3.80;1.27;;;;;;;13.53;74.71;100646.94;5106028;28;20019;-61
2023/10/01 01:17:04;;;;;;;2.00;0.73;;;;;;;13.51;75.15;100646.97;5105742;28;20016;-61
2023/10/01 01:19:31;;;;;;;8.80;1.13;;;;;;;13.51;74.94;100651.34;5105577;28;20024;-61
2023/10/01 01:21:57;;;;;;;7.50;0.95;;;;;;;13.55;75.32;100650.41;5105886;28;20024;-60
2023/10/01 01:24:24;;;;;;;4.28;1.25;;;;;;;13.56;75.16;100654.72;5105563;28;20230;-61
2023/10/01 01:26:51;;;;;;;4.55;0.98;;;;;;;13.57;75.40;100650.38;5105772;28;20039;-60
2023/10/01 01:29:29;;;;;;;0.35;0.35;;;;;;;13.55;75.42;100653.00;5105803;28;20028;-61
2023/10/01 01:32:07;;;;;;;3.97;0.80;;;;;;;13.59;75.13;100644.25;5105783;28;20031;-61
2023/10/01 01:34:36;;;;;;;4.90;0.95;;;;;;;13.52;75.40;100629.59;5105273;28;20397;-60
2023/10/01 01:37:05;;;;;;;3.22;0.80;;;;;;;13.56;75.55;100640.84;5105273;28;20051;-61
2023/10/01 01:39:48;;;;;;;7.20;0.82;;;;;;;13.54;75.79;100640.88;5105637;28;20020;-61
2023/10/01 01:42:17;;;;;;;7.38;1.00;;;;;;;13.55;75.89;100637.34;5105311;28;20047;-60
2023/10/01 01:44:42;;;;;;;3.38;0.77;;;;;;;13.55;75.63;100637.34;5105399;28;20174;-62
2023/10/01 01:47:09;;;;;;;2.38;0.82;;;;;;;13.45;75.67;100618.38;5105232;28;20047;-61
2023/10/01 01:49:34;;;;;;;2.53;0.88;;;;;;;13.60;75.60;100639.88;5104594;28;20050;-61
2023/10/01 01:52:03;;;;;;;1.42;0.47;;;;;;;13.59;75.67;100631.22;5105379;28;20020;-60
2023/10/01 01:54:34;;;;;;;0.68;0.43;;;;;;;13.58;75.59;100631.22;5105145;28;20030;-60
2023/10/01 01:57:00;;;;;;;2.08;1.08;;;;;;;13.56;75.80;100633.84;5105378;28;20106;-60
2023/10/01 01:59:29;;;;;;;0.45;0.43;;;;;;;13.60;75.56;100635.53;5105362;28;20055;-60
2023/10/01 02:01:56;;;;;;;1.52;0.70;;;;;;;13.57;75.49;100621.69;5104995;28;20030;-60
2023/10/01 02:04:22;;;;;;;4.63;0.80;;;;;;;13.58;75.93;100637.31;5104836;28;20035;-60
2023/10/01 02:06:50;;;;;;;1.52;0.80;;;;;;;13.59;75.92;100633.84;5105143;28;20028;-61
2023/10/01 02:09:19;;;;;;;1.58;0.70;;;;;;;13.61;75.85;100633.81;5105163;28;20095;-59
2023/10/01 02:11:45;;;;;;;2.00;0.82;;;;;;;13.60;75.64;100626.84;5104927;28;20087;-61
2023/10/01 02:14:29;;;;;;;2.83;1.10;;;;;;;13.61;75.57;100626.81;5105160;28;20491;-61
2023/10/01 02:17:02;;;;;;;7.78;0.63;;;;;;;13.67;75.60;100630.22;5105105;28;20016;-60
2023/10/01 02:19:29;;;;;;;1.58;0.65;;;;;;;13.66;75.85;100625.88;5104966;28;20032;-61
2023/10/01 02:22:05;;;;;;;1.55;0.80;;;;;;;13.62;76.14;100628.56;5105073;28;20102;-61
2023/10/01 02:24:44;;;;;;;5.05;1.30;;;;;;;13.62;75.77;100623.34;5105005;28;20024;-61
2023/10/01 02:27:11;;;;;;;2.28;0.73;;;;;;;13.66;75.75;100626.72;5104996;28;20124;-60
2023/10/01 02:29:45;;;;;;;0.65;0.40;;;;;;;13.65;75.65;100627.63;5108566;28;20087;-60
2023/10/01 02:32:14;;;;;;;1.13;0.55;;;;;;;13.61;75.85;100628.59;5109039;28;20032;-61
2023/10/01 02:34:40;;;;;;;1.23;0.50;;;;;;;13.66;75.68;100637.16;5108697;28;20012;-61
2023/10/01 02:37:07;;;;;;;11.05;1.08;;;;;;;13.68;75.86;100637.13;5090686;28;20028;-61
2023/10/01 02:39:32;;;;;;;0.88;0.45;;;;;;;13.69;75.80;100644.09;5108890;28;20024;-61
2023/10/01 02:42:31;;;;;;;1.90;1.08;;;;;;;13.74;75.77;100647.47;5108441;28;20362;-61
2023/10/01 02:44:53;;;;;;;1.95;0.60;;;;;;;13.67;75.90;100645.88;5105448;28;20041;-61
2023/10/01 02:47:20;;;;;;;2.45;0.70;;;;;;;13.69;75.96;100636.28;5108341;28;20384;-61
2023/10/01 02:49:51;;;;;;;1.70;0.90;;;;;;;13.68;75.72;100632.78;5108478;28;20023;-60
2023/10/01 02:52:19;;;;;;;3.07;0.87;;;;;;;13.73;75.89;100627.50;5108615;28;20107;-61
2023/10/01 02:54:47;;;;;;;2.00;0.90;;;;;;;13.72;75.68;100636.22;5108588;28;20024;-60
2023/10/01 02:57:13;;;;;;;0.80;0.50;;;;;;;13.69;75.81;100639.72;5108429;28;20087;-60
2023/10/01 03:02:30;;;;;;;8.25;0.75;;;;;;;13.70;75.95;100646.69;5108540;28;20171;-61
2023/10/01 03:04:56;;;;;;;1.48;1.10;;;;;;;13.71;75.59;100643.16;5108145;28;20031;-60
2023/10/01 03:07:24;;;;;;;5.68;1.40;;;;;;;13.61;75.83;100624.22;5108051;28;20027;-60
2023/10/01 03:09:53;;;;;;;3.33;0.70;;;;;;;13.73;75.82;100637.94;5108211;28;20024;-61
2023/10/01 03:12:27;;;;;;;2.10;0.75;;;;;;;13.74;75.65;100632.69;5108123;28;20024;-61
2023/10/01 03:15:23;;;;;;;0.85;0.60;;;;;;;13.68;75.95;100627.56;5108250;28;20020;-61
2023/10/01 03:17:56;;;;;;;0.88;0.65;;;;;;;13.73;76.02;100638.78;5107741;28;20240;-61
2023/10/01 03:23:06;;;;;;;6.32;0.60;;;;;;;13.77;76.04;100647.41;5108153;28;20028;-60
2023/10/01 03:25:41;;;;;;;1.48;0.73;;;;;;;13.75;76.00;100644.00;5108001;28;20020;-62
2023/10/01 03:28:25;;;;;;;8.60;0.60;;;;;;;13.74;75.83;100637.03;5107801;28;20026;-62
2023/10/01 03:31:08;;;;;;;2.33;0.85;;;;;;;13.74;76.32;100650.06;5107931;28;20020;-60
2023/10/01 03:33:37;;;;;;;1.45;0.85;;;;;;;13.74;76.11;100637.03;5107479;28;20022;-60
2023/10/01 03:36:05;;;;;;;2.20;1.23;;;;;;;13.75;76.20;100636.16;5107884;28;20074;-61
2023/10/01 03:38:32;;;;;;;2.47;1.02;;;;;;;13.75;76.23;100637.00;5089543;28;20020;-62
2023/10/01 03:41:08;;;;;;;2.60;0.77;;;;;;;13.74;76.11;100637.03;5106508;28;20024;-61
2023/10/01 03:43:37;;;;;;;1.92;0.93;;;;;;;13.68;76.39;100632.78;5107716;28;20033;-61
2023/10/01 03:46:13;;;;;;;2.13;0.98;;;;;;;13.68;76.03;100647.56;5089282;28;20016;-61
2023/10/01 03:48:58;;;;;;;4.95;0.85;;;;;;;13.63;76.38;100650.25;5107253;28;20047;-61
2023/10/01 03:51:28;;;;;;;1.10;0.63;;;;;;;13.57;76.37;100648.63;5107603;28;20024;-61
2023/10/01 03:54:06;;;;;;;0.77;0.77;;;;;;;13.57;76.42;100650.38;5107655;28;20017;-61
2023/10/01 03:56:36;;;;;;;3.35;0.75;;;;;;;13.51;76.43;100640.91;5107551;28;20050;-60
2023/10/01 03:59:02;;;;;;;4.13;0.60;;;;;;;13.51;76.07;100636.53;5107605;28;20027;-61
2023/10/01 04:01:33;;;;;;;4.13;1.02;;;;;;;13.46;76.14;100640.09;5089066;28;20028;-61
2023/10/01 04:04:00;;;;;;;4.70;1.00;;;;;;;13.42;76.16;100635.84;5106837;28;20028;-62
2023/10/01 04:06:27;;;;;;;0.90;0.90;;;;;;;13.41;75.99;100636.69;5107309;28;20480;-61
2023/10/01 04:08:55;;;;;;;8.57;1.52;;;;;;;13.33;76.13;100637.69;5107203;28;20028;-61
2023/10/01 04:11:41;;;;;;;4.75;1.35;;;;;;;13.29;75.77;100633.41;5106987;28;20051;-62
2023/10/01 04:14:10;;;;;;;2.47;0.73;;;;;;;13.30;76.04;100645.56;5101577;28;20115;-61
2023/10/01 04:16:42;;;;;;;0.65;0.50;;;;;;;13.25;75.78;100648.25;5107075;28;20049;-60
2023/10/01 04:19:11;;;;;;;0.60;0.55;;;;;;;13.13;75.87;100630.19;5106911;28;20028;-61
2023/10/01 04:21:36;;;;;;;2.83;0.80;;;;;;;13.19;76.28;100652.69;5106990;28;20024;-61
2023/10/01 04:24:02;;;;;;;2.13;0.63;;;;;;;13.16;75.83;100634.50;5106664;28;20357;-61
2023/10/01 04:26:30;;;;;;;1.15;0.90;;;;;;;13.15;76.09;100638.84;5106725;28;20024;-61
2023/10/01 04:28:59;;;;;;;4.30;0.73;;;;;;;13.11;76.33;100635.44;5106751;28;20024;-61
2023/10/01 04:31:47;;;;;;;10.60;1.17;;;;;;;13.07;75.96;100627.66;5106579;28;20028;-60
2023/10/01 04:34:14;;;;;;;0.55;0.50;;;;;;;12.99;76.31;100633.88;5106643;28;20133;-61
2023/10/01 04:36:44;;;;;;;9.77;1.05;;;;;;;12.96;76.00;100636.50;5106333;28;20024;-60
2023/10/01 04:39:09;;;;;;;1.67;0.73;;;;;;;12.96;76.23;100639.13;5088392;28;20020;-60
2023/10/01 04:41:35;;;;;;;4.75;1.02;;;;;;;12.92;76.28;100636.59;5106194;28;20099;-60
2023/10/01 04:44:06;;;;;;;0.40;0.40;;;;;;;12.91;76.30;100640.09;5088080;28;20027;-60
2023/10/01 04:46:40;;;;;;;2.45;0.70;;;;;;;12.92;76.07;100647.00;5106544;28;20542;-60
2023/10/01 04:49:51;;;;;;;5.13;0.85;;;;;;;12.91;76.09;100659.16;5106326;28;20050;-60
2023/10/01 04:52:01;;;;;;;3.42;0.68;;;;;;;12.91;76.14;100653.94;5090309;28;20082;-61
2023/10/01 04:54:28;;;;;;;1.48;0.98;;;;;;;12.94;76.55;100647.84;5106535;28;20016;-60
2023/10/01 04:56:57;;;;;;;0.38;0.38;;;;;;;12.94;76.35;100655.66;5106115;28;20108;-61
2023/10/01 04:59:24;;;;;;;2.25;0.93;;;;;;;12.98;76.13;100657.34;5106111;28;20460;-61
2023/10/01 05:01:56;;;;;;;1.88;0.75;;;;;;;13.00;76.00;100656.41;5106058;28;20020;-60
2023/10/01 05:04:22;;;;;;;;;;;;;;;13.08;76.21;100656.31;5087843;28;20040;-61
2023/10/01 05:06:59;;;;;;;1.27;0.70;;;;;;;13.06;75.90;100655.50;5105876;28;19971;-60
2023/10/01 05:09:28;;;;;;;0.55;0.43;;;;;;;13.07;76.16;100662.41;5087787;28;20068;-61
2023/10/01 05:11:55;;;;;;;3.33;0.90;;;;;;;13.05;76.11;100661.56;5106072;28;20020;-60
2023/10/01 05:14:22;;;;;;;2.00;0.63;;;;;;;13.13;76.48;100671.91;5105748;28;20020;-61
2023/10/01 05:16:49;;;;;;;5.35;1.30;;;;;;;13.21;76.25;100682.22;5097500;28;20028;-61
2023/10/01 05:19:15;;;;;;;0.68;0.57;;;;;;;13.18;76.13;100664.00;5105820;28;20107;-61
2023/10/01 05:21:47;;;;;;;3.75;1.02;;;;;;;13.29;76.17;100676.88;5105888;28;20020;-61
2023/10/01 05:24:34;;;;;;;3.70;0.85;;;;;;;13.29;75.91;100677.72;5105520;28;20376;-61
2023/10/01 05:27:07;;;;;;;2.03;0.75;;;;;;;13.29;76.32;100676.88;5105429;28;20020;-62
2023/10/01 05:29:34;;;;;;;0.60;0.60;;;;;;;13.33;75.90;100682.03;5105677;28;20431;-61
2023/10/01 05:32:01;;;;;;;3.20;1.10;;;;;;;13.34;76.21;100686.34;5105582;28;20023;-61
2023/10/01 05:34:28;;;;;;;3.83;1.33;;;;;;;13.32;75.94;100682.03;5105527;28;20072;-61
2023/10/01 05:37:08;;;;;;;1.63;0.85;;;;;;;13.35;76.10;100682.88;5105396;28;20024;-61
2023/10/01 05:39:55;;;;;;;3.97;0.90;;;;;;;13.38;76.23;100695.84;5105484;28;20380;-60
2023/10/01 05:42:23;;;;;;;5.03;0.80;;;;;;;13.49;76.45;100698.28;5105175;28;20044;-61
2023/10/01 05:44:50;;;;;;;0.93;0.55;;;;;;;13.57;76.06;100698.19;5105540;28;20032;-61
2023/10/01 05:47:16;;;;;;;3.47;0.60;;;;;;;13.66;75.67;100698.94;5086987;28;20028;-61
2023/10/01 05:49:49;;;;;;;0.32;0.32;;;;;;;13.69;75.51;100704.94;5086960;28;20020;-61
2023/10/01 05:52:17;;;;;;;1.65;0.90;;;;;;;13.69;75.52;100709.31;5105244;28;20476;-60
2023/10/01 05:54:52;;;;;;;2.17;0.70;;;;;;;13.70;75.45;100711.03;5105382;28;20038;-62
2023/10/01 05:57:23;;;;;;;2.35;0.88;;;;;;;13.68;75.28;100711.06;5105295;28;20388;-61
2023/10/01 05:59:56;;;;;;;3.70;0.80;;;;;;;13.70;75.00;100709.28;5105154;28;20024;-60
2023/10/01 06:02:41;;;;;;;1.65;0.82;;;;;;;13.74;74.46;100704.88;5104497;28;20024;-60
2023/10/01 06:07:55;;;;;;;1.65;0.57;;;;;;;13.75;74.82;100699.63;5105229;28;20030;-61
2023/10/01 06:10:26;;;;;;;5.72;0.73;;;;;;;13.83;74.68;100689.06;5105088;28;20111;-61
2023/10/01 06:12:56;;;;;;;2.00;1.03;;;;;;;13.82;74.59;100699.50;5105056;28;20028;-61
2023/10/01 06:15:25;;;;;;;1.48;0.73;;;;;;;13.86;74.36;100704.69;5105266;28;20031;-61
2023/10/01 06:18:05;;;;;;;14.88;1.02;;;;;;;13.88;74.21;100702.03;5105100;28;20039;-63
2023/10/01 06:20:33;;;;;;;0.65;0.50;;;;;;;13.96;74.54;100704.50;5104736;28;20027;-61
2023/10/01 06:22:59;;;;;;;2.58;0.68;;;;;;;14.08;74.44;100717.34;5105035;28;20043;-62
2023/10/01 06:25:40;;;;;;;4.80;1.00;;;;;;;14.13;73.66;100714.66;5104934;28;20077;-61
2023/10/01 06:28:10;;;;;;;0.55;0.40;;;;;;;14.18;73.44;100711.94;5104802;28;20035;-60
2023/10/01 06:30:39;;;;;;;0.63;0.47;;;;;;;14.20;72.80;100713.63;5104971;28;20027;-61
2023/10/01 06:33:08;;;;;;;2.63;0.80;;;;;;;14.29;72.68;100722.19;5104899;28;20024;-65
2023/10/01 06:35:35;;;;;;;5.70;0.95;;;;;;;14.32;72.89;100716.91;5104213;28;20056;-61
2023/10/01 06:38:00;;;;;;;6.20;0.77;;;;;;;14.30;72.56;100709.09;5086437;28;20024;-61
2023/10/01 06:40:31;;;;;;;1.00;0.50;;;;;;;14.45;73.07;100727.97;5104691;28;20063;-60
2023/10/01 06:43:00;;;;;;;1.05;0.80;;;;;;;14.48;72.90;100730.53;5104610;28;20064;-61
2023/10/01 06:45:38;;;;;;;1.33;0.75;;;;;;;14.54;73.19;100738.25;5104807;28;20096;-60
2023/10/01 06:48:14;;;;;;;2.13;0.85;;;;;;;14.57;73.08;100737.34;5104791;28;20020;-60
2023/10/01 06:50:40;;;;;;;1.50;0.55;;;;;;;14.65;72.85;100730.19;5104576;28;20043;-60
2023/10/01 06:53:07;;;;;;;5.82;1.20;;;;;;;14.82;73.13;100735.13;5104685;28;20056;-61
2023/10/01 06:55:36;;;;;;;2.65;0.95;;;;;;;15.13;73.08;100740.59;5104635;28;20433;-60
2023/10/01 06:58:06;;;;;;;0.63;0.50;;;;;;;15.59;73.25;100734.25;5104584;28;20024;-60
2023/10/01 07:00:35;;;;;;;3.50;1.25;;;;;;;16.25;71.08;100740.50;5104569;28;20032;-60
2023/10/01 07:03:23;;;;;;;0.55;0.55;;;;;;;16.84;70.60;100732.75;5104377;28;20020;-61
2023/10/01 07:05:55;;;;;;;1.98;0.82;;;;;;;17.39;70.22;100736.41;5104352;28;20094;-60
2023/10/01 07:08:32;;;;;;;2.65;0.82;;;;;;;17.66;67.42;100733.78;5104340;28;20052;-62
2023/10/01 07:11:11;;;;;;;5.20;0.55;;;;;;;18.13;67.97;100738.34;5097768;28;20073;-64
2023/10/01 07:13:36;;;;;;;5.07;1.25;;;;;;;18.61;66.29;100748.94;5104985;28;20024;-61
2023/10/01 07:16:02;;;;;;;2.05;0.98;;;;;;;18.83;65.59;100738.47;5108414;28;20031;-61
2023/10/01 07:18:29;;;;;;;1.88;0.68;;;;;;;19.07;65.56;100733.19;5107914;28;20024;-61
2023/10/01 07:21:00;;;;;;;2.95;1.02;;;;;;;19.17;61.83;100732.88;5108360;28;20028;-62
2023/10/01 07:23:26;;;;;;;2.77;0.70;;;;;;;18.94;61.48;100731.94;5108039;28;20056;-61
2023/10/01 07:26:01;;;;;;;0.80;0.45;;;;;;;19.01;60.69;100737.84;5108250;28;20028;-61
2023/10/01 07:28:26;;;;;;;1.67;0.50;;;;;;;19.13;59.85;100744.41;5107863;28;20035;-61
2023/10/01 07:30:56;;;;;;;2.95;0.63;;;;;;;19.31;61.86;100751.56;5108001;28;20028;-61
2023/10/01 07:33:21;;;;;;;0.75;0.47;;;;;;;19.36;60.88;100732.97;5107780;28;20091;-60
2023/10/01 07:35:58;;;;;;;1.70;0.77;;;;;;;19.37;59.87;100752.25;5107936;28;20039;-61
2023/10/01 07:38:28;;;;;;;1.08;0.80;;;;;;;19.03;58.23;100744.75;5107796;28;20020;-61
2023/10/01 07:41:07;;;;;;;2.40;0.43;;;;;;;18.58;58.41;100749.91;5107656;28;20039;-62
2023/10/01 07:43:33;;;;;;;0.60;0.45;;;;;;;18.42;60.27;100741.72;5107823;28;20069;-61
2023/10/01 07:45:59;;;;;;;7.97;0.70;;;;;;;18.36;59.91;100739.31;5107779;28;20418;-61
2023/10/01 07:48:35;;;;;;;3.65;0.55;;;;;;;18.37;59.63;100734.94;5106920;28;20024;-61
2023/10/01 07:51:03;;;;;;;0.57;0.40;;;;;;;18.27;59.96;100740.50;5107396;28;20028;-61
2023/10/01 07:53:32;;;;;;;0.98;0.68;;;;;;;18.13;58.91;100763.78;5107547;28;20479;-61
2023/10/01 07:56:01;;;;;;;1.58;0.70;;;;;;;17.93;59.57;100765.28;5107628;28;20055;-61
2023/10/01 07:58:44;;;;;;;2.60;1.02;;;;;;;17.60;59.76;100750.59;5107409;28;20026;-62
2023/10/01 08:03:58;;;;;;;0.70;0.45;;;;;;;17.25;60.61;100765.69;5107037;28;20050;-61
2023/10/01 08:06:30;;;;;;;2.67;0.77;;;;;;;16.94;60.60;100764.81;5107008;28;20460;-62
2023/10/01 08:08:59;;;;;;;0.73;0.55;;;;;;;16.92;61.31;100782.34;5107047;28;20078;-62
2023/10/01 08:14:10;;;;;;;3.63;1.10;;;;;;;17.46;60.44;100772.03;5107031;28;20066;-60
2023/10/01 08:16:47;;;;;;;3.88;1.05;;;;;;;17.31;60.32;100776.88;5106695;28;20024;-61
2023/10/01 08:19:14;;;;;;;0.65;0.45;;;;;;;17.18;60.74;100781.63;5088176;28;20088;-60
2023/10/01 08:21:48;;;;;;;0.57;0.40;;;;;;;17.37;60.61;100774.94;5106891;28;20054;-60
2023/10/01 08:24:18;;;;;;;1.77;0.77;;;;;;;17.65;61.22;100774.91;5088120;28;20043;-60
2023/10/01 08:26:49;;;;;;;0.73;0.50;;;;;;;17.89;60.04;100774.19;5106086;28;20024;-60
2023/10/01 08:29:15;;;;;;;1.02;0.75;;;;;;;17.84;59.91;100772.56;5106454;28;20080;-61
2023/10/01 08:34:23;;;;;;;0.90;0.50;;;;;;;18.12;58.83;100788.31;5106526;28;20020;-61
2023/10/01 08:36:56;;;;;;;0.55;0.45;;;;;;;17.88;58.41;100788.22;5106580;28;20020;-61
2023/10/01 08:39:34;;;;;;;1.13;0.63;;;;;;;17.69;58.97;100791.44;5106143;28;20024;-61
2023/10/01 08:42:10;;;;;;;0.45;0.43;;;;;;;17.37;59.03;100780.19;5106027;28;20051;-60
2023/10/01 08:44:54;;;;;;;5.93;1.00;;;;;;;17.27;59.85;100790.97;5106234;28;20020;-61
2023/10/01 08:47:37;;;;;;;0.43;0.40;;;;;;;17.27;59.71;100780.47;5106185;28;20031;-60
2023/10/01 08:52:57;;;;;;;1.35;0.60;;;;;;;17.12;60.00;100788.81;5106603;28;20108;-59
2023/10/01 08:55:39;;;;;;;4.50;1.50;;;;;;;17.08;60.09;100791.53;5106281;28;20042;-60
2023/10/01 08:58:15;;;;;;;0.85;0.60;;;;;;;17.09;59.67;100801.09;5106319;28;20103;-60
2023/10/01 09:00:52;;;;;;;0.70;0.52;;;;;;;17.16;60.19;100806.16;5106081;28;20024;-60
2023/10/01 09:03:30;;;;;;;0.90;0.50;;;;;;;17.22;60.04;100809.47;5106155;28;20031;-61
2023/10/01 09:06:29;;;;;;;1.48;0.65;;;;;;;17.22;59.92;100814.72;5106156;28;20144;-61
2023/10/01 09:08:54;;;;;;;1.80;0.73;;;;;;;17.03;59.87;100811.75;5101866;28;20501;-60
2023/10/01 09:11:32;;;;;;;0.52;0.50;;;;;;;17.20;60.36;100823.56;5106230;28;20027;-61
2023/10/01 09:16:44;;;;;;;1.77;0.52;;;;;;;16.98;60.09;100817.13;5106072;28;20085;-61
2023/10/01 09:19:30;;;;;;;2.47;0.50;;;;;;;16.89;59.72;100803.41;5105787;28;20027;-62
2023/10/01 09:25:14;;;;;;;3.05;0.90;;;;;;;16.56;60.94;100810.44;5105912;28;20028;-61
2023/10/01 09:27:57;;;;;;;0.85;0.60;;;;;;;16.50;60.90;100825.47;5105836;28;20434;-61
2023/10/01 09:30:33;;;;;;;0.40;0.40;;;;;;;16.48;61.17;100812.41;5105898;28;20055;-61
2023/10/01 09:33:14;;;;;;;2.40;0.82;;;;;;;16.47;61.29;100826.38;5105462;28;20046;-61
2023/10/01 09:35:49;;;;;;;0.60;0.43;;;;;;;16.34;61.07;100813.59;5087263;28;20510;-61
2023/10/01 09:38:19;;;;;;;2.15;0.63;;;;;;;16.36;61.61;100824.06;5104574;28;20540;-61
2023/10/01 09:40:46;;;;;;;1.70;0.50;;;;;;;16.39;61.81;100818.72;5105520;28;20050;-60
2023/10/01 09:43:24;;;;;;;1.65;0.50;;;;;;;16.26;61.52;100818.22;5105187;28;20058;-62
2023/10/01 09:45:51;;;;;;;1.48;0.63;;;;;;;16.16;61.93;100808.84;5105724;28;20028;-61
2023/10/01 09:48:29;;;;;;;2.95;0.80;;;;;;;16.22;61.62;100813.94;5087121;28;20157;-61
2023/10/01 09:51:16;;;;;;;2.08;0.75;;;;;;;16.24;61.80;100825.25;5105491;28;20028;-60
2023/10/01 09:53:44;;;;;;;1.05;0.50;;;;;;;16.19;61.88;100829.72;5105456;28;20024;-60
2023/10/01 09:56:26;;;;;;;4.47;0.50;;;;;;;16.13;61.38;100833.38;5105369;28;20377;-61
2023/10/01 09:58:58;;;;;;;2.75;0.57;;;;;;;16.29;62.03;100826.00;5097686;28;20028;-60
2023/10/01 10:01:27;;;;;;;2.67;0.45;;;;;;;16.40;61.46;100830.06;5105620;28;20060;-60
2023/10/01 10:03:56;;;;;;;1.85;0.63;;;;;;;16.36;61.21;100834.53;5105153;28;20031;-61
2023/10/01 10:06:24;;;;;;;1.85;0.60;;;;;;;16.45;61.53;100830.81;5105599;28;20024;-61
2023/10/01 10:09:02;;;;;;;1.15;0.55;;;;;;;16.54;61.09;100825.34;5105229;28;20077;-60
2023/10/01 10:11:29;;;;;;;0.90;0.60;;;;;;;16.56;61.04;100836.66;5105463;28;20087;-61
2023/10/01 10:13:57;;;;;;;0.73;0.63;;;;;;;16.56;60.67;100828.78;5105368;28;20038;-61
2023/10/01 10:16:32;;;;;;;7.60;0.75;;;;;;;16.47;60.80;100827.25;5105282;28;20468;-61
2023/10/01 10:19:09;;;;;;;1.83;0.73;;;;;;;16.45;61.14;100833.44;5104752;28;20551;-60
2023/10/01 10:24:34;;;;;;;3.22;0.60;;;;;;;16.48;60.68;100834.19;5105153;28;20032;-60
2023/10/01 10:27:15;;;;;;;1.08;0.60;;;;;;;16.47;60.90;100834.25;5105372;28;20110;-61
2023/10/01 10:29:46;;;;;;;1.65;0.75;;;;;;;16.52;61.36;100836.78;5105111;28;20020;-60
2023/10/01 10:32:13;;;;;;;2.63;0.93;;;;;;;16.70;60.86;100830.16;5105009;28;20035;-60
2023/10/01 10:34:47;;;;;;;2.25;0.52;;;;;;;16.79;60.62;100843.00;5104904;28;20058;-60
2023/10/01 10:37:33;;;;;;;1.55;0.50;;;;;;;16.83;59.97;100838.53;5105157;28;20027;-61
2023/10/01 10:40:12;;;;;;;0.40;0.40;;;;;;;16.93;60.08;100847.03;5104759;28;20081;-61
2023/10/01 10:42:39;;;;;;;0.30;0.30;;;;;;;17.02;60.06;100853.75;5104962;28;20078;-61
2023/10/01 10:45:19;;;;;;;0.68;0.50;;;;;;;17.19;60.41;100850.69;5104777;28;20021;-61
2023/10/01 10:48:03;;;;;;;0.80;0.57;;;;;;;17.18;60.01;100852.47;5104800;28;20028;-60
2023/10/01 10:50:50;;;;;;;1.52;0.57;;;;;;;17.07;59.95;100852.75;5108277;28;20133;-60
2023/10/01 10:53:25;;;;;;;1.67;0.50;;;;;;;17.02;59.92;100856.38;5108932;28;20028;-61
2023/10/01 10:56:02;;;;;;;1.95;0.50;;;;;;;16.94;60.10;100856.59;5109000;28;20028;-60
2023/10/01 10:58:40;;;;;;;3.88;0.73;;;;;;;16.96;59.65;100854.81;5108745;28;20027;-61
2023/10/01 11:01:15;;;;;;;1.85;0.75;;;;;;;16.84;60.03;100854.25;5108817;28;20468;-60
2023/10/01 11:03:45;;;;;;;2.28;0.57;;;;;;;17.03;60.13;100855.50;5108460;28;20028;-60
2023/10/01 11:06:29;;;;;;;0.65;0.50;;;;;;;17.05;60.00;100849.28;5108849;28;20051;-60
2023/10/01 11:08:55;;;;;;;4.82;0.77;;;;;;;17.06;59.93;100853.63;5108551;28;20028;-60
2023/10/01 11:11:25;;;;;;;0.65;0.40;;;;;;;16.92;59.74;100851.41;5108371;28;20024;-60
2023/10/01 11:14:00;;;;;;;5.93;0.70;;;;;;;16.91;59.96;100857.56;5108560;28;20028;-59
2023/10/01 11:16:34;;;;;;;1.75;0.65;;;;;;;16.87;59.85;100855.06;5108625;28;20031;-60
2023/10/01 11:19:13;;;;;;;1.25;0.60;;;;;;;16.81;59.53;100862.19;5107458;28;20020;-59
2023/10/01 11:22:00;;;;;;;0.98;0.50;;;;;;;16.74;59.23;100865.91;5108281;28;20027;-60
2023/10/01 11:24:30;;;;;;;2.08;0.82;;;;;;;16.69;59.14;100860.75;5108197;28;20024;-61
2023/10/01 11:27:11;;;;;;;3.08;0.93;;;;;;;16.65;58.77;100864.38;5108401;28;20044;-60
2023/10/01 11:29:39;;;;;;;2.57;0.60;;;;;;;16.51;59.23;100867.34;5108018;28;20024;-60
2023/10/01 11:32:16;;;;;;;1.25;0.47;;;;;;;16.49;59.53;100871.75;5108298;28;20106;-61
2023/10/01 11:34:45;;;;;;;0.50;0.40;;;;;;;16.32;59.26;100856.47;5107903;28;20080;-61
2023/10/01 11:37:18;;;;;;;3.25;0.73;;;;;;;16.41;59.52;100871.97;5108148;28;20039;-59
2023/10/01 11:39:49;;;;;;;1.48;0.88;;;;;;;16.38;60.18;100871.16;5107871;28;20035;-61
2023/10/01 11:42:35;;;;;;;1.98;1.17;;;;;;;16.45;60.27;100864.91;5108006;28;20472;-61
2023/10/01 11:45:31;;;;;;;0.85;0.85;;;;;;;16.47;60.58;100860.44;5107882;28;20028;-61
2023/10/01 11:48:05;;;;;;;0.68;0.50;;;;;;;16.53;60.84;100856.81;5107685;28;20027;-61
2023/10/01 11:50:44;;;;;;;2.83;0.88;;;;;;;16.65;60.81;100860.88;5107525;28;20023;-60
2023/10/01 11:53:16;;;;;;;3.15;1.10;;;;;;;16.73;60.77;100858.91;5107849;28;20085;-62
2023/10/01 11:55:41;;;;;;;0.70;0.70;;;;;;;16.78;60.66;100850.91;5089220;28;20024;-60
2023/10/01 11:58:06;;;;;;;1.45;0.55;;;;;;;16.83;60.72;100847.28;5107302;28;20040;-60
2023/10/01 12:03:18;;;;;;;1.58;0.80;;;;;;;16.87;60.27;100845.41;5107387;28;20035;-60
2023/10/01 12:05:46;;;;;;;0.68;0.40;;;;;;;16.81;60.20;100840.34;5107107;28;20036;-60
2023/10/01 12:08:17;;;;;;;1.58;0.63;;;;;;;16.83;60.25;100828.94;5107409;28;20028;-60
2023/10/01 12:10:43;;;;;;;1.60;0.60;;;;;;;16.80;60.35;100850.00;5107195;28;20020;-60
2023/10/01 12:13:10;;;;;;;0.73;0.60;;;;;;;16.77;60.03;100851.84;5106931;28;20485;-61
2023/10/01 12:15:50;;;;;;;1.90;0.68;;;;;;;16.78;60.46;100849.16;5106728;28;20472;-60